createdAt,value
2018-09-26T00:01:21.939Z,6.59
2018-09-26T00:03:53.242Z,6.56
2018-09-26T00:06:20.817Z,6.55
2018-09-26T00:08:49.884Z,6.54
2018-09-26T00:11:17.635Z,6.52
2018-09-26T00:13:46.334Z,6.52
2018-09-26T00:16:14.812Z,6.51
2018-09-26T00:18:42.365Z,6.48
2018-09-26T00:21:11.078Z,6.47
2018-09-26T00:23:38.658Z,6.45
2018-09-26T00:26:07.414Z,6.43
2018-09-26T00:28:34.971Z,6.44
2018-09-26T00:31:02.991Z,6.42
2018-09-26T00:33:31.331Z,6.41
2018-09-26T00:35:59.005Z,6.41
2018-09-26T00:38:26.995Z,6.39
2018-09-26T00:40:54.598Z,6.36
2018-09-26T00:43:23.465Z,6.32
2018-09-26T00:45:52.850Z,6.31
2018-09-26T00:48:20.370Z,6.32
2018-09-26T00:50:51.558Z,6.31
2018-09-26T00:53:19.178Z,6.28
2018-09-26T00:55:47.930Z,6.27
2018-09-26T00:58:16.478Z,6.25
2018-09-26T01:00:53.049Z,6.24
2018-09-26T01:03:20.916Z,6.23
2018-09-26T01:05:48.540Z,6.23
2018-09-26T01:08:16.393Z,6.23
2018-09-26T01:10:43.977Z,6.23
2018-09-26T01:13:11.543Z,6.24
2018-09-26T01:15:41.416Z,6.27
2018-09-26T01:18:08.983Z,6.29
2018-09-26T01:20:37.115Z,6.32
2018-09-26T01:23:05.055Z,6.37
2018-09-26T01:25:34.640Z,6.39
2018-09-26T01:28:02.221Z,6.41
2018-09-26T01:30:32.278Z,6.44
2018-09-26T01:32:59.835Z,6.46
2018-09-26T01:35:27.395Z,6.51
2018-09-26T01:37:55.490Z,6.53
2018-09-26T01:40:24.015Z,6.58
2018-09-26T01:42:51.627Z,6.61
2018-09-26T01:45:20.006Z,6.63
2018-09-26T01:47:47.610Z,6.63
2018-09-26T01:50:15.161Z,6.65
2018-09-26T01:52:44.306Z,6.66
2018-09-26T01:55:11.895Z,6.62
2018-09-26T01:57:45.061Z,6.56
2018-09-26T02:00:15.151Z,6.50
2018-09-26T02:02:42.702Z,6.43
2018-09-26T02:05:10.294Z,6.39
2018-09-26T02:07:38.333Z,6.37
2018-09-26T02:10:05.869Z,6.36
2018-09-26T02:12:33.392Z,6.36
2018-09-26T02:15:00.910Z,6.36
2018-09-26T02:17:28.395Z,6.36
2018-09-26T02:19:55.912Z,6.33
2018-09-26T02:22:23.465Z,6.30
2018-09-26T02:24:51.013Z,6.30
2018-09-26T02:27:18.566Z,6.31
2018-09-26T02:29:46.097Z,6.29
2018-09-26T02:32:13.606Z,6.29
2018-09-26T02:34:41.135Z,6.29
2018-09-26T02:37:09.876Z,6.30
2018-09-26T02:39:37.545Z,6.31
2018-09-26T02:42:05.109Z,6.28
2018-09-26T02:44:32.635Z,6.25
2018-09-26T02:47:00.157Z,6.21
2018-09-26T02:49:27.680Z,6.18
2018-09-26T02:51:55.209Z,6.13
2018-09-26T02:54:22.780Z,6.10
2018-09-26T02:56:50.749Z,6.06
2018-09-26T02:59:18.297Z,6.04
2018-09-26T03:01:46.577Z,6.03
2018-09-26T03:04:14.126Z,6.01
2018-09-26T03:06:41.769Z,5.98
2018-09-26T03:09:10.348Z,5.96
2018-09-26T03:11:38.373Z,5.98
2018-09-26T03:14:05.913Z,5.98
2018-09-26T03:16:33.993Z,6.01
2018-09-26T03:19:01.612Z,6.05
2018-09-26T03:21:29.180Z,6.09
2018-09-26T03:23:56.696Z,6.16
2018-09-26T03:26:24.608Z,6.21
2018-09-26T03:28:52.133Z,6.22
2018-09-26T03:31:19.670Z,6.27
2018-09-26T03:33:47.671Z,6.30
2018-09-26T03:36:15.139Z,6.30
2018-09-26T03:38:43.298Z,6.31
2018-09-26T03:41:12.220Z,6.30
2018-09-26T03:43:39.797Z,6.28
2018-09-26T03:46:08.346Z,6.26
2018-09-26T03:48:35.905Z,6.24
2018-09-26T03:51:03.480Z,6.24
2018-09-26T03:53:31.017Z,6.21
2018-09-26T03:55:58.554Z,6.23
2018-09-26T03:58:26.114Z,6.26
2018-09-26T04:00:53.662Z,6.26
2018-09-26T04:03:23.604Z,6.26
2018-09-26T04:05:51.120Z,6.21
2018-09-26T04:08:18.638Z,6.19
2018-09-26T04:10:46.563Z,6.15
2018-09-26T04:13:14.165Z,6.12
2018-09-26T04:15:47.803Z,6.10
2018-09-26T04:18:15.716Z,6.08
2018-09-26T04:20:43.290Z,6.08
2018-09-26T04:23:10.804Z,6.09
2018-09-26T04:25:38.788Z,6.10
2018-09-26T04:28:06.376Z,6.09
2018-09-26T04:30:34.039Z,6.07
2018-09-26T04:33:02.106Z,6.05
2018-09-26T04:35:29.497Z,6.03
2018-09-26T04:37:57.021Z,6.02
2018-09-26T04:40:24.867Z,5.99
2018-09-26T04:42:52.385Z,5.94
2018-09-26T04:45:21.249Z,5.89
2018-09-26T04:47:49.095Z,5.85
2018-09-26T04:50:16.605Z,5.89
2018-09-26T04:52:45.970Z,5.97
2018-09-26T04:55:14.452Z,6.11
2018-09-26T04:57:42.011Z,6.32
2018-09-26T05:00:09.539Z,6.55
2018-09-26T05:02:37.413Z,6.82
2018-09-26T05:05:04.989Z,7.03
2018-09-26T05:07:32.531Z,7.14
2018-09-26T05:10:00.552Z,7.16
2018-09-26T05:12:28.661Z,7.12
2018-09-26T05:14:56.190Z,7.01
2018-09-26T05:17:24.098Z,6.88
2018-09-26T05:19:51.760Z,6.74
2018-09-26T05:22:19.936Z,6.60
2018-09-26T05:24:48.584Z,6.50
2018-09-26T05:27:16.104Z,6.39
2018-09-26T05:29:43.661Z,6.32
2018-09-26T05:32:11.630Z,6.25
2018-09-26T05:34:39.144Z,6.22
2018-09-26T05:37:06.735Z,6.19
2018-09-26T05:39:35.528Z,6.18
2018-09-26T05:42:03.117Z,6.17
2018-09-26T05:44:31.247Z,6.19
2018-09-26T05:46:59.398Z,6.21
2018-09-26T05:49:26.966Z,6.21
2018-09-26T05:51:54.530Z,6.21
2018-09-26T05:54:22.497Z,6.20
2018-09-26T05:56:49.996Z,6.19
2018-09-26T05:59:17.541Z,6.19
2018-09-26T06:01:45.528Z,6.20
2018-09-26T06:04:13.083Z,6.21
2018-09-26T06:06:40.599Z,6.25
2018-09-26T06:09:09.755Z,6.30
2018-09-26T06:11:37.307Z,6.37
2018-09-26T06:14:04.940Z,6.43
2018-09-26T06:16:32.957Z,6.49
2018-09-26T06:19:00.496Z,6.60
2018-09-26T06:21:28.081Z,6.69
2018-09-26T06:23:57.015Z,6.79
2018-09-26T06:26:24.580Z,6.91
2018-09-26T06:28:52.144Z,7.03
2018-09-26T06:31:20.092Z,7.16
2018-09-26T06:33:47.660Z,7.29
2018-09-26T06:36:15.201Z,7.41
2018-09-26T06:38:44.045Z,7.52
2018-09-26T06:41:11.760Z,7.64
2018-09-26T06:43:39.309Z,7.72
2018-09-26T06:46:08.155Z,7.77
2018-09-26T06:48:35.657Z,7.85
2018-09-26T06:51:04.149Z,7.93
2018-09-26T06:53:34.029Z,8.02
2018-09-26T06:56:01.581Z,8.10
2018-09-26T06:58:29.101Z,8.20
2018-09-26T07:00:57.096Z,8.30
2018-09-26T07:03:24.669Z,8.43
2018-09-26T07:05:52.168Z,8.57
2018-09-26T07:08:21.707Z,8.76
2018-09-26T07:10:49.288Z,8.95
2018-09-26T07:13:18.070Z,9.13
2018-09-26T07:15:46.017Z,9.30
2018-09-26T07:18:13.549Z,9.46
2018-09-26T07:20:41.870Z,9.64
2018-09-26T07:23:09.867Z,9.79
2018-09-26T07:25:37.462Z,9.99
2018-09-26T07:28:04.995Z,10.21
2018-09-26T07:30:34.973Z,10.41
2018-09-26T07:33:02.512Z,10.64
2018-09-26T07:35:34.578Z,10.83
2018-09-26T07:38:03.481Z,11.07
2018-09-26T07:40:32.560Z,11.25
2018-09-26T07:43:03.232Z,11.41
2018-09-26T07:45:30.780Z,11.58
2018-09-26T07:47:58.341Z,11.70
2018-09-26T07:50:27.012Z,11.81
2018-09-26T07:52:54.701Z,11.92
2018-09-26T07:55:22.223Z,12.03
2018-09-26T07:57:50.092Z,12.13
2018-09-26T08:00:17.695Z,12.23
2018-09-26T08:02:45.301Z,12.35
2018-09-26T08:05:13.237Z,12.45
2018-09-26T08:07:40.803Z,12.57
2018-09-26T08:10:08.382Z,12.68
2018-09-26T08:12:38.574Z,12.80
2018-09-26T08:15:06.101Z,12.90
2018-09-26T08:17:34.757Z,12.99
2018-09-26T08:20:03.251Z,13.08
2018-09-26T08:22:30.771Z,13.17
2018-09-26T08:24:59.344Z,13.24
2018-09-26T08:27:29.020Z,13.30
2018-09-26T08:29:57.594Z,13.40
2018-09-26T08:32:25.109Z,13.52
2018-09-26T08:34:53.968Z,13.65
2018-09-26T08:37:22.159Z,13.79
2018-09-26T08:39:50.836Z,13.93
2018-09-26T08:42:20.708Z,14.07
2018-09-26T08:44:48.353Z,14.17
2018-09-26T08:47:15.909Z,14.25
2018-09-26T08:49:46.733Z,14.30
2018-09-26T08:52:14.274Z,14.36
2018-09-26T08:54:41.800Z,14.39
2018-09-26T08:57:10.761Z,14.44
2018-09-26T08:59:38.943Z,14.51
2018-09-26T09:02:07.209Z,14.62
2018-09-26T09:04:35.147Z,14.72
2018-09-26T09:07:02.701Z,14.79
2018-09-26T09:09:30.255Z,14.88
2018-09-26T09:11:58.252Z,14.98
2018-09-26T09:14:26.913Z,15.13
2018-09-26T09:16:54.466Z,15.24
2018-09-26T09:19:22.569Z,15.29
2018-09-26T09:21:50.157Z,15.38
2018-09-26T09:24:17.745Z,15.41
2018-09-26T09:26:46.106Z,15.46
2018-09-26T09:29:15.528Z,15.51
2018-09-26T09:31:43.030Z,15.56
2018-09-26T09:34:12.821Z,15.64
2018-09-26T09:36:40.462Z,15.74
2018-09-26T09:39:08.941Z,15.84
2018-09-26T09:41:37.772Z,15.92
2018-09-26T09:44:05.338Z,16.01
2018-09-26T09:46:32.932Z,16.09
2018-09-26T09:49:00.894Z,16.18
2018-09-26T09:51:28.488Z,16.20
2018-09-26T09:53:56.029Z,16.23
2018-09-26T09:56:28.193Z,16.39
2018-09-26T09:58:55.721Z,16.63
2018-09-26T10:01:29.062Z,16.87
2018-09-26T10:03:58.582Z,17.23
2018-09-26T10:06:26.210Z,17.68
2018-09-26T10:08:55.034Z,17.99
2018-09-26T10:11:23.673Z,18.06
2018-09-26T10:13:51.421Z,17.86
2018-09-26T10:16:20.087Z,17.73
2018-09-26T10:18:50.151Z,17.64
2018-09-26T10:21:19.156Z,17.58
2018-09-26T10:23:46.681Z,17.70
2018-09-26T10:26:14.585Z,18.02
2018-09-26T10:28:43.285Z,18.44
2018-09-26T10:31:12.499Z,18.80
2018-09-26T10:33:43.361Z,18.98
2018-09-26T10:36:11.613Z,18.83
2018-09-26T10:38:39.992Z,18.55
2018-09-26T10:41:08.588Z,18.29
2018-09-26T10:43:36.758Z,18.03
2018-09-26T10:46:04.356Z,17.87
2018-09-26T10:48:33.123Z,17.71
2018-09-26T10:51:03.669Z,17.58
2018-09-26T10:53:32.391Z,17.47
2018-09-26T10:56:00.580Z,17.47
2018-09-26T10:58:28.119Z,17.53
2018-09-26T11:00:55.658Z,17.63
2018-09-26T11:03:23.497Z,17.78
2018-09-26T11:05:51.749Z,17.98
2018-09-26T11:08:20.817Z,18.23
2018-09-26T11:10:50.112Z,18.46
2018-09-26T11:13:19.318Z,18.70
2018-09-26T11:15:46.870Z,19.04
2018-09-26T11:18:15.208Z,19.36
2018-09-26T11:20:42.955Z,19.71
2018-09-26T11:23:11.088Z,19.81
2018-09-26T11:25:39.913Z,19.99
2018-09-26T11:28:08.731Z,20.28
2018-09-26T11:30:36.285Z,20.59
2018-09-26T11:33:05.349Z,20.79
2018-09-26T11:35:32.857Z,20.84
2018-09-26T11:38:00.444Z,20.93
2018-09-26T11:40:29.286Z,21.02
2018-09-26T11:42:57.713Z,21.26
2018-09-26T11:45:25.539Z,21.66
2018-09-26T11:47:53.520Z,21.84
2018-09-26T11:50:21.339Z,22.07
2018-09-26T11:52:48.961Z,22.56
2018-09-26T11:55:16.910Z,23.02
2018-09-26T11:57:44.524Z,23.55
2018-09-26T12:00:12.167Z,23.77
2018-09-26T12:02:40.274Z,23.87
2018-09-26T12:05:07.827Z,24.33
2018-09-26T12:07:35.791Z,24.88
2018-09-26T12:10:03.658Z,25.46
2018-09-26T12:12:32.267Z,25.97
2018-09-26T12:14:59.938Z,26.20
2018-09-26T12:17:27.768Z,26.23
2018-09-26T12:19:55.313Z,26.29
2018-09-26T12:22:23.881Z,26.50
2018-09-26T12:24:52.750Z,26.69
2018-09-26T12:27:20.291Z,26.63
2018-09-26T12:29:49.991Z,26.38
2018-09-26T12:32:19.665Z,26.07
2018-09-26T12:34:47.913Z,25.70
2018-09-26T12:37:15.508Z,25.43
2018-09-26T12:39:44.517Z,24.89
2018-09-26T12:42:12.184Z,24.07
2018-09-26T12:44:41.511Z,23.38
2018-09-26T12:47:11.734Z,22.70
2018-09-26T12:49:40.864Z,22.16
2018-09-26T12:52:09.521Z,21.78
2018-09-26T12:54:37.084Z,21.50
2018-09-26T12:57:06.064Z,21.22
2018-09-26T12:59:33.884Z,20.99
2018-09-26T13:02:01.446Z,20.72
2018-09-26T13:04:29.081Z,20.46
2018-09-26T13:06:57.014Z,20.18
2018-09-26T13:09:24.567Z,20.00
2018-09-26T13:11:52.371Z,19.86
2018-09-26T13:14:21.716Z,19.74
2018-09-26T13:16:49.261Z,19.69
2018-09-26T13:19:16.826Z,19.69
2018-09-26T13:21:47.740Z,19.66
2018-09-26T13:24:15.755Z,19.59
2018-09-26T13:26:44.333Z,19.60
2018-09-26T13:29:13.256Z,19.61
2018-09-26T13:31:40.761Z,19.66
2018-09-26T13:34:08.304Z,19.72
2018-09-26T13:36:40.792Z,19.79
2018-09-26T13:39:10.877Z,19.79
2018-09-26T13:41:39.470Z,19.79
2018-09-26T13:44:07.492Z,19.80
2018-09-26T13:46:36.866Z,19.84
2018-09-26T13:49:04.901Z,19.86
2018-09-26T13:51:33.803Z,19.87
2018-09-26T13:54:01.389Z,19.89
2018-09-26T13:56:29.592Z,19.93
2018-09-26T13:58:58.770Z,19.96
2018-09-26T14:01:26.334Z,19.97
2018-09-26T14:03:54.704Z,20.01
2018-09-26T14:06:22.685Z,20.05
2018-09-26T14:08:50.238Z,20.11
2018-09-26T14:11:19.421Z,20.15
2018-09-26T14:13:48.036Z,20.15
2018-09-26T14:16:15.576Z,20.17
2018-09-26T14:18:43.146Z,20.13
2018-09-26T14:21:11.021Z,20.10
2018-09-26T14:23:39.356Z,20.09
2018-09-26T14:26:06.888Z,20.10
2018-09-26T14:28:35.842Z,20.11
2018-09-26T14:31:04.737Z,20.12
2018-09-26T14:33:32.337Z,20.15
2018-09-26T14:36:01.068Z,20.15
2018-09-26T14:38:31.596Z,20.13
2018-09-26T14:40:59.145Z,20.12
2018-09-26T14:43:27.453Z,20.18
2018-09-26T14:45:55.031Z,20.25
2018-09-26T14:48:23.606Z,20.29
2018-09-26T14:50:51.548Z,20.27
2018-09-26T14:53:21.072Z,20.21
2018-09-26T14:55:49.613Z,20.08
2018-09-26T14:58:18.396Z,19.99
2018-09-26T15:00:48.281Z,20.02
2018-09-26T15:03:16.444Z,20.11
2018-09-26T15:05:44.392Z,20.22
2018-09-26T15:08:14.944Z,20.33
2018-09-26T15:10:42.467Z,20.51
2018-09-26T15:13:10.334Z,20.79
2018-09-26T15:15:37.897Z,20.99
2018-09-26T15:18:05.457Z,21.18
2018-09-26T15:20:34.671Z,21.37
2018-09-26T15:23:02.229Z,21.62
2018-09-26T15:25:29.805Z,21.88
2018-09-26T15:27:57.902Z,22.18
2018-09-26T15:30:25.500Z,22.40
2018-09-26T15:32:53.299Z,22.48
2018-09-26T15:35:22.388Z,22.49
2018-09-26T15:37:50.198Z,22.44
2018-09-26T15:40:18.552Z,22.33
2018-09-26T15:42:48.097Z,22.24
2018-09-26T15:45:16.340Z,21.99
2018-09-26T15:47:44.494Z,21.58
2018-09-26T15:50:15.613Z,21.15
2018-09-26T15:52:44.190Z,20.76
2018-09-26T15:55:11.755Z,20.45
2018-09-26T15:57:46.021Z,20.19
2018-09-26T16:00:13.562Z,19.95
2018-09-26T16:02:41.116Z,19.75
2018-09-26T16:05:08.963Z,19.57
2018-09-26T16:07:36.484Z,19.41
2018-09-26T16:10:06.159Z,19.26
2018-09-26T16:12:34.061Z,19.12
2018-09-26T16:15:02.473Z,19.00
2018-09-26T16:17:30.945Z,18.89
2018-09-26T16:19:59.777Z,18.78
2018-09-26T16:22:27.441Z,18.67
2018-09-26T16:24:55.222Z,18.58
2018-09-26T16:27:24.545Z,18.48
2018-09-26T16:29:52.073Z,18.39
2018-09-26T16:32:20.574Z,18.30
2018-09-26T16:34:50.509Z,18.22
2018-09-26T16:37:18.048Z,18.12
2018-09-26T16:39:46.262Z,18.05
2018-09-26T16:42:15.245Z,17.96
2018-09-26T16:44:42.813Z,17.88
2018-09-26T16:47:11.239Z,17.81
2018-09-26T16:49:40.012Z,17.73
2018-09-26T16:52:07.602Z,17.64
2018-09-26T16:54:35.108Z,17.54
2018-09-26T16:57:03.962Z,17.45
2018-09-26T16:59:31.518Z,17.36
2018-09-26T17:02:00.069Z,17.26
2018-09-26T17:04:29.791Z,17.16
2018-09-26T17:06:58.259Z,17.08
2018-09-26T17:09:25.804Z,16.98
2018-09-26T17:11:56.232Z,16.90
2018-09-26T17:14:23.817Z,16.83
2018-09-26T17:16:52.413Z,16.76
2018-09-26T17:19:20.594Z,16.68
2018-09-26T17:21:48.715Z,16.61
2018-09-26T17:24:16.664Z,16.51
2018-09-26T17:26:44.161Z,16.40
2018-09-26T17:29:11.736Z,16.31
2018-09-26T17:31:44.279Z,16.23
2018-09-26T17:34:15.939Z,16.13
2018-09-26T17:36:44.225Z,16.05
2018-09-26T17:39:13.514Z,15.98
2018-09-26T17:41:41.947Z,15.96
2018-09-26T17:44:10.116Z,15.93
2018-09-26T17:46:38.249Z,15.87
2018-09-26T17:49:05.803Z,15.80
2018-09-26T17:51:33.481Z,15.74
2018-09-26T17:54:02.435Z,15.65
2018-09-26T17:56:32.611Z,15.56
2018-09-26T17:59:02.227Z,15.48
2018-09-26T18:01:30.909Z,15.40
2018-09-26T18:06:30.056Z,15.28
2018-09-26T18:08:58.874Z,15.27
2018-09-26T18:11:27.392Z,15.24
2018-09-26T18:13:54.935Z,15.15
2018-09-26T18:16:26.816Z,15.02
2018-09-26T18:18:54.534Z,14.89
2018-09-26T18:21:22.621Z,14.75
2018-09-26T18:23:51.303Z,14.62
2018-09-26T18:26:18.836Z,14.50
2018-09-26T18:28:48.514Z,14.38
2018-09-26T18:31:16.414Z,14.27
2018-09-26T18:33:44.951Z,14.15
2018-09-26T18:36:13.333Z,14.04
2018-09-26T18:38:44.442Z,13.96
2018-09-26T18:41:12.765Z,13.88
2018-09-26T18:43:40.322Z,13.81
2018-09-26T18:46:08.262Z,13.73
2018-09-26T18:48:35.793Z,13.65
2018-09-26T18:51:07.139Z,13.59
2018-09-26T18:53:36.427Z,13.51
2018-09-26T18:56:04.157Z,13.42
2018-09-26T18:58:33.368Z,13.33
2018-09-26T19:01:03.561Z,13.26
2018-09-26T19:03:34.235Z,13.21
2018-09-26T19:06:03.100Z,13.15
2018-09-26T19:08:39.661Z,13.12
2018-09-26T19:11:07.877Z,13.07
2018-09-26T19:13:38.263Z,13.01
2018-09-26T19:16:08.889Z,12.99
2018-09-26T19:18:37.270Z,13.01
2018-09-26T19:21:05.939Z,12.98
2018-09-26T19:23:34.495Z,12.96
2018-09-26T19:26:04.771Z,12.94
2018-09-26T19:28:33.856Z,12.91
2018-09-26T19:31:02.677Z,12.95
2018-09-26T19:33:30.510Z,12.98
2018-09-26T19:35:58.069Z,13.01
2018-09-26T19:38:27.250Z,12.98
2018-09-26T19:40:58.247Z,12.92
2018-09-26T19:43:29.625Z,12.88
2018-09-26T19:45:58.416Z,12.86
2018-09-26T19:48:26.977Z,12.83
2018-09-26T19:50:56.303Z,12.77
2018-09-26T19:53:25.094Z,12.73
2018-09-26T19:55:53.273Z,12.68
2018-09-26T19:58:22.144Z,12.62
2018-09-26T20:01:01.048Z,12.54
2018-09-26T20:03:29.593Z,12.46
2018-09-26T20:05:59.474Z,12.37
2018-09-26T20:08:31.204Z,12.30
2018-09-26T20:10:59.777Z,12.25
2018-09-26T20:13:27.398Z,12.22
2018-09-26T20:15:55.384Z,12.18
2018-09-26T20:18:25.929Z,12.14
2018-09-26T20:20:53.530Z,12.12
2018-09-26T20:23:23.754Z,12.07
2018-09-26T20:25:53.023Z,12.04
2018-09-26T20:28:21.537Z,12.02
2018-09-26T20:30:50.423Z,11.99
2018-09-26T20:33:18.267Z,11.98
2018-09-26T20:35:46.414Z,11.97
2018-09-26T20:38:16.106Z,11.95
2018-09-26T20:40:43.730Z,11.94
2018-09-26T20:43:11.551Z,11.98
2018-09-26T20:45:39.401Z,12.01
2018-09-26T20:48:07.589Z,12.05
2018-09-26T20:50:35.561Z,12.08
2018-09-26T20:53:03.530Z,12.11
2018-09-26T20:55:31.069Z,12.12
2018-09-26T20:57:59.615Z,12.13
2018-09-26T21:00:27.542Z,12.11
2018-09-26T21:02:57.201Z,12.05
2018-09-26T21:05:24.782Z,11.98
2018-09-26T21:10:27.596Z,11.81
2018-09-26T21:12:56.628Z,11.78
2018-09-26T21:15:27.985Z,11.73
2018-09-26T21:17:55.557Z,11.70
2018-09-26T21:20:25.400Z,11.67
2018-09-26T21:22:53.316Z,11.63
2018-09-26T21:25:20.845Z,11.60
2018-09-26T21:27:49.337Z,11.58
2018-09-26T21:30:17.717Z,11.54
2018-09-26T21:32:46.603Z,11.48
2018-09-26T21:35:16.999Z,11.42
2018-09-26T21:37:45.486Z,11.36
2018-09-26T21:40:13.505Z,11.33
2018-09-26T21:42:42.089Z,11.36
2018-09-26T21:45:09.681Z,11.39
2018-09-26T21:47:38.343Z,11.39
2018-09-26T21:50:06.927Z,11.37
2018-09-26T21:52:35.452Z,11.33
2018-09-26T21:55:03.432Z,11.33
2018-09-26T21:57:33.002Z,11.38
2018-09-26T22:00:00.660Z,11.43
2018-09-26T22:02:29.289Z,11.49
2018-09-26T22:04:56.849Z,11.57
2018-09-26T22:07:24.364Z,11.66
2018-09-26T22:09:52.281Z,11.73
2018-09-26T22:12:19.796Z,11.80
2018-09-26T22:14:47.292Z,11.87
2018-09-26T22:17:15.211Z,11.93
2018-09-26T22:19:42.776Z,11.96
2018-09-26T22:22:10.344Z,11.90
2018-09-26T22:24:38.325Z,11.80
2018-09-26T22:27:05.860Z,11.68
2018-09-26T22:29:33.402Z,11.58
2018-09-26T22:32:01.397Z,11.53
2018-09-26T22:34:29.018Z,11.46
2018-09-26T22:36:57.190Z,11.41
2018-09-26T22:39:25.140Z,11.38
2018-09-26T22:41:53.663Z,11.36
2018-09-26T22:44:22.312Z,11.33
2018-09-26T22:46:51.013Z,11.28
2018-09-26T22:49:18.578Z,11.22
2018-09-26T22:51:46.983Z,11.14
2018-09-26T22:54:14.611Z,11.09
2018-09-26T22:56:42.692Z,11.07
2018-09-26T22:59:11.261Z,11.06
2018-09-26T23:01:40.823Z,11.03
2018-09-26T23:04:08.550Z,10.97
2018-09-26T23:06:36.103Z,10.91
2018-09-26T23:09:05.278Z,10.86
2018-09-26T23:11:33.423Z,10.80
2018-09-26T23:14:01.518Z,10.75
2018-09-26T23:16:29.460Z,10.74
2018-09-26T23:18:57.000Z,10.71
2018-09-26T23:21:25.384Z,10.68
2018-09-26T23:23:53.361Z,10.64
2018-09-26T23:26:20.868Z,10.61
2018-09-26T23:28:48.454Z,10.54
2018-09-26T23:31:16.351Z,10.49
2018-09-26T23:33:43.858Z,10.44
2018-09-26T23:36:11.393Z,10.40
2018-09-26T23:38:39.236Z,10.37
2018-09-26T23:41:06.763Z,10.33
2018-09-26T23:43:34.308Z,10.29
2018-09-26T23:46:02.210Z,10.26
2018-09-26T23:48:30.426Z,10.24
2018-09-26T23:50:58.009Z,10.21
2018-09-26T23:53:25.568Z,10.18
2018-09-26T23:55:53.077Z,10.17
2018-09-26T23:58:21.256Z,10.14
